Time;durP1;ratioP1;P1;durP2;ratioP2;P2;SDS_P1;SDS_P2;PMS_P1;PMS_P2;Temp;Humidity;BMP_temperature;BMP_pressure;BME280_temperature;BME280_humidity;BME280_pressure;Samples;Min_cycle;Max_cycle;Signal;HPM_P1;HPM_P2
2022/09/03 00:01:08;;;;;;;2.60;2.20;;;;;;;;;;5018589;28;20169;-66
2022/09/03 00:03:40;;;;;;;3.47;2.00;;;;;;;;;;5016285;28;20192;-66
2022/09/03 00:06:10;;;;;;;2.10;1.90;;;;;;;;;;5014435;28;20211;-66
2022/09/03 00:08:39;;;;;;;2.40;1.70;;;;;;;;;;5015815;28;20246;-66
2022/09/03 00:11:12;;;;;;;3.07;1.70;;;;;;;;;;5013852;28;20249;-67
2022/09/03 00:13:46;;;;;;;4.60;2.00;;;;;;;;;;5015610;28;20219;-68
2022/09/03 00:16:17;;;;;;;2.10;1.90;;;;;;;;;;5014410;28;20621;-67
2022/09/03 00:18:45;;;;;;;3.27;2.17;;;;;;;;;;5015670;28;20222;-66
2022/09/03 00:21:24;;;;;;;3.57;1.70;;;;;;;;;;5014299;28;20182;-67
2022/09/03 00:23:50;;;;;;;5.27;1.90;;;;;;;;;;5016199;28;20174;-66
2022/09/03 00:26:21;;;;;;;4.90;2.47;;;;;;;;;;5014131;28;20672;-66
2022/09/03 00:28:52;;;;;;;3.90;1.90;;;;;;;;;;5014082;28;20641;-66
2022/09/03 00:31:26;;;;;;;3.00;2.03;;;;;;;;;;5015700;28;20179;-67
2022/09/03 00:33:57;;;;;;;4.40;1.60;;;;;;;;;;5015468;28;20186;-66
2022/09/03 00:36:25;;;;;;;6.23;2.17;;;;;;;;;;5015467;28;20242;-66
2022/09/03 00:38:51;;;;;;;12.17;2.17;;;;;;;;;;5015786;28;20180;-66
2022/09/03 00:41:30;;;;;;;5.70;2.30;;;;;;;;;;5015258;28;20183;-69
2022/09/03 00:44:15;;;;;;;3.37;1.70;;;;;;;;;;5014013;28;20172;-67
2022/09/03 00:46:51;;;;;;;3.53;2.10;;;;;;;;;;5015432;28;20199;-67
2022/09/03 00:49:19;;;;;;;5.77;2.50;;;;;;;;;;5014916;28;20257;-67
2022/09/03 00:52:18;;;;;;;5.03;2.10;;;;;;;;;;5015323;28;20180;-67
2022/09/03 00:54:47;;;;;;;2.47;2.03;;;;;;;;;;4981885;28;20238;-66
2022/09/03 00:57:33;;;;;;;10.97;2.60;;;;;;;;;;5014709;28;20215;-67
2022/09/03 01:00:05;;;;;;;7.50;2.33;;;;;;;;;;5013592;28;20568;-66
2022/09/03 01:02:45;;;;;;;4.10;2.03;;;;;;;;;;5015217;28;20516;-66
2022/09/03 01:05:27;;;;;;;3.37;1.97;;;;;;;;;;5014673;28;20712;-67
2022/09/03 01:07:57;;;;;;;2.30;2.00;;;;;;;;;;5015006;28;20172;-67
2022/09/03 01:10:32;;;;;;;3.53;1.80;;;;;;;;;;5014552;28;20200;-66
2022/09/03 01:13:02;;;;;;;3.20;1.77;;;;;;;;;;5014589;28;20183;-66
2022/09/03 01:15:28;;;;;;;2.93;1.70;;;;;;;;;;5014466;28;20211;-66
2022/09/03 01:18:02;;;;;;;2.13;1.90;;;;;;;;;;5014703;28;20215;-67
2022/09/03 01:20:35;;;;;;;3.00;2.00;;;;;;;;;;5014840;28;20167;-67
2022/09/03 01:23:19;;;;;;;1.80;1.70;;;;;;;;;;5013298;28;20180;-66
2022/09/03 01:25:52;;;;;;;4.87;2.00;;;;;;;;;;5014061;28;20573;-66
2022/09/03 01:28:19;;;;;;;2.80;1.90;;;;;;;;;;5012982;28;20180;-66
2022/09/03 01:30:49;;;;;;;3.33;2.00;;;;;;;;;;5012781;28;20354;-66
2022/09/03 01:33:15;;;;;;;4.80;1.97;;;;;;;;;;5012784;28;20180;-67
2022/09/03 01:35:48;;;;;;;4.57;1.97;;;;;;;;;;5012690;28;20203;-66
2022/09/03 01:38:38;;;;;;;2.40;1.90;;;;;;;;;;5014349;28;20581;-67
2022/09/03 01:44:26;;;;;;;3.73;2.23;;;;;;;;;;5013967;28;20218;-67
2022/09/03 01:46:59;;;;;;;3.90;1.97;;;;;;;;;;5014041;28;20274;-66
2022/09/03 01:49:26;;;;;;;4.50;1.90;;;;;;;;;;5014026;28;20196;-66
2022/09/03 01:51:59;;;;;;;2.27;1.90;;;;;;;;;;5013960;28;20251;-67
2022/09/03 01:54:25;;;;;;;2.90;1.93;;;;;;;;;;5014065;28;20164;-66
2022/09/03 01:56:51;;;;;;;3.03;2.33;;;;;;;;;;5013612;28;20718;-67
2022/09/03 01:59:49;;;;;;;4.17;2.00;;;;;;;;;;5014022;28;20187;-69
2022/09/03 02:02:19;;;;;;;3.50;2.30;;;;;;;;;;4991441;28;20188;-68
2022/09/03 02:05:02;;;;;;;5.27;2.10;;;;;;;;;;5013643;28;20171;-66
2022/09/03 02:07:32;;;;;;;4.30;2.50;;;;;;;;;;5013606;28;20210;-68
2022/09/03 02:09:58;;;;;;;6.07;2.47;;;;;;;;;;5013587;28;20686;-66
2022/09/03 02:12:24;;;;;;;3.83;2.40;;;;;;;;;;5014182;28;20182;-67
2022/09/03 02:14:50;;;;;;;4.60;2.10;;;;;;;;;;5013895;28;20258;-67
2022/09/03 02:17:17;;;;;;;4.90;2.27;;;;;;;;;;5012308;28;20248;-66
2022/09/03 02:19:44;;;;;;;6.50;2.13;;;;;;;;;;5013379;28;20203;-67
2022/09/03 02:22:10;;;;;;;5.03;2.60;;;;;;;;;;5013613;28;20172;-66
2022/09/03 02:24:36;;;;;;;3.37;2.43;;;;;;;;;;5012034;28;20679;-66
2022/09/03 02:27:02;;;;;;;4.40;2.20;;;;;;;;;;5013540;28;20679;-66
2022/09/03 02:29:28;;;;;;;3.43;2.47;;;;;;;;;;5012438;28;20203;-66
2022/09/03 02:31:54;;;;;;;4.63;2.57;;;;;;;;;;5012152;28;20192;-66
2022/09/03 02:34:20;;;;;;;5.33;3.07;;;;;;;;;;5017558;28;20182;-66
2022/09/03 02:36:47;;;;;;;6.43;2.60;;;;;;;;;;5020536;28;20672;-66
2022/09/03 02:39:14;;;;;;;4.63;2.83;;;;;;;;;;5018952;28;20254;-69
2022/09/03 02:41:40;;;;;;;6.27;3.03;;;;;;;;;;5018623;28;20271;-67
2022/09/03 02:44:08;;;;;;;3.87;2.73;;;;;;;;;;5019947;28;20207;-66
2022/09/03 02:46:38;;;;;;;2.87;2.33;;;;;;;;;;5018514;28;20210;-67
2022/09/03 02:49:04;;;;;;;6.57;2.60;;;;;;;;;;5019787;28;20552;-69
2022/09/03 02:51:37;;;;;;;4.53;2.47;;;;;;;;;;5018574;28;20602;-66
2022/09/03 02:54:04;;;;;;;3.00;2.57;;;;;;;;;;5019906;28;20648;-66
2022/09/03 02:56:30;;;;;;;3.63;2.37;;;;;;;;;;5019963;28;20218;-66
2022/09/03 02:58:56;;;;;;;3.63;2.40;;;;;;;;;;5019710;28;20236;-66
2022/09/03 03:01:22;;;;;;;6.93;2.53;;;;;;;;;;5019740;28;20255;-67
2022/09/03 03:03:49;;;;;;;4.17;2.47;;;;;;;;;;5019671;28;20688;-66
2022/09/03 03:06:14;;;;;;;7.43;2.50;;;;;;;;;;5019902;28;20559;-66
2022/09/03 03:08:42;;;;;;;6.00;2.37;;;;;;;;;;5019848;28;20176;-66
2022/09/03 03:11:08;;;;;;;3.37;2.47;;;;;;;;;;5019433;28;20668;-67
2022/09/03 03:13:34;;;;;;;4.50;2.40;;;;;;;;;;5019586;28;20230;-67
2022/09/03 03:16:02;;;;;;;3.37;2.50;;;;;;;;;;5019688;28;20250;-67
2022/09/03 03:18:28;;;;;;;5.60;2.70;;;;;;;;;;5019522;28;20588;-67
2022/09/03 03:20:54;;;;;;;4.67;2.70;;;;;;;;;;5018319;28;20179;-67
2022/09/03 03:23:20;;;;;;;3.03;2.30;;;;;;;;;;5019652;28;20179;-67
2022/09/03 03:25:47;;;;;;;6.20;2.50;;;;;;;;;;5018361;28;20204;-67
2022/09/03 03:28:13;;;;;;;2.93;2.40;;;;;;;;;;5019475;28;20183;-68
2022/09/03 03:30:41;;;;;;;2.70;2.30;;;;;;;;;;5019573;28;20253;-67
2022/09/03 03:33:07;;;;;;;3.03;2.50;;;;;;;;;;5019624;28;20204;-67
2022/09/03 03:35:33;;;;;;;3.83;2.37;;;;;;;;;;5019435;28;20191;-67
2022/09/03 03:38:00;;;;;;;8.07;2.30;;;;;;;;;;5019587;28;20175;-67
2022/09/03 03:40:26;;;;;;;2.63;2.23;;;;;;;;;;5019301;28;20245;-67
2022/09/03 03:42:52;;;;;;;5.70;2.57;;;;;;;;;;5019318;28;20180;-67
2022/09/03 03:45:18;;;;;;;4.63;2.53;;;;;;;;;;5017249;28;20193;-68
2022/09/03 03:47:44;;;;;;;4.07;2.10;;;;;;;;;;5016282;28;20179;-67
2022/09/03 03:50:10;;;;;;;5.63;2.33;;;;;;;;;;5016712;28;20257;-67
2022/09/03 03:52:36;;;;;;;3.00;2.20;;;;;;;;;;5016156;28;20182;-67
2022/09/03 03:55:02;;;;;;;2.93;1.97;;;;;;;;;;5014824;28;20533;-67
2022/09/03 03:57:31;;;;;;;2.30;2.10;;;;;;;;;;5015902;28;20218;-67
2022/09/03 03:59:57;;;;;;;3.03;2.57;;;;;;;;;;5015999;28;20172;-67
2022/09/03 04:02:23;;;;;;;2.57;2.37;;;;;;;;;;5016467;28;20176;-67
2022/09/03 04:04:49;;;;;;;7.67;2.70;;;;;;;;;;5015964;28;20257;-67
2022/09/03 04:07:15;;;;;;;8.40;2.30;;;;;;;;;;5016055;28;20667;-68
2022/09/03 04:09:41;;;;;;;2.73;2.20;;;;;;;;;;5014477;28;20262;-67
2022/09/03 04:12:07;;;;;;;3.20;2.57;;;;;;;;;;5015752;28;20176;-67
2022/09/03 04:14:34;;;;;;;6.03;2.47;;;;;;;;;;5014420;28;20184;-68
2022/09/03 04:17:00;;;;;;;5.73;2.30;;;;;;;;;;5015638;28;20192;-67
2022/09/03 04:19:28;;;;;;;6.37;2.70;;;;;;;;;;5014387;28;20210;-67
2022/09/03 04:21:54;;;;;;;2.80;2.40;;;;;;;;;;5015608;28;20709;-67
2022/09/03 04:24:20;;;;;;;6.67;2.50;;;;;;;;;;5015673;28;20184;-67
2022/09/03 04:26:46;;;;;;;8.07;2.40;;;;;;;;;;5015499;28;20242;-67
2022/09/03 04:29:12;;;;;;;6.90;2.30;;;;;;;;;;5015653;28;20215;-67
2022/09/03 04:31:38;;;;;;;3.00;2.30;;;;;;;;;;5014200;28;20211;-67
2022/09/03 04:34:08;;;;;;;2.20;2.00;;;;;;;;;;5015339;28;20258;-67
2022/09/03 04:36:34;;;;;;;4.17;2.43;;;;;;;;;;5015305;28;20286;-67
2022/09/03 04:39:00;;;;;;;3.67;2.40;;;;;;;;;;5015317;28;20247;-67
2022/09/03 04:41:27;;;;;;;2.67;2.43;;;;;;;;;;5013853;28;20180;-67
2022/09/03 04:43:54;;;;;;;5.00;2.40;;;;;;;;;;5013845;28;20795;-67
2022/09/03 04:46:21;;;;;;;2.43;2.13;;;;;;;;;;5013783;28;20200;-67
2022/09/03 04:48:51;;;;;;;4.13;2.27;;;;;;;;;;5015334;28;20267;-67
2022/09/03 04:51:19;;;;;;;4.97;2.70;;;;;;;;;;5015313;28;20184;-67
2022/09/03 04:53:46;;;;;;;4.27;2.80;;;;;;;;;;5014940;28;20179;-67
2022/09/03 04:56:15;;;;;;;4.10;2.40;;;;;;;;;;5014586;28;20242;-67
2022/09/03 04:58:42;;;;;;;2.57;2.37;;;;;;;;;;5015442;28;20686;-67
2022/09/03 05:01:09;;;;;;;3.93;2.50;;;;;;;;;;5013644;28;20187;-67
2022/09/03 05:03:36;;;;;;;6.57;2.50;;;;;;;;;;5014737;28;20180;-68
2022/09/03 05:06:04;;;;;;;3.97;2.40;;;;;;;;;;5014633;28;20195;-68
2022/09/03 05:08:30;;;;;;;3.57;2.20;;;;;;;;;;5014752;28;20184;-67
2022/09/03 05:10:59;;;;;;;4.97;2.43;;;;;;;;;;5014837;28;20257;-67
2022/09/03 05:13:25;;;;;;;4.97;2.77;;;;;;;;;;5014891;28;20632;-67
2022/09/03 05:15:51;;;;;;;3.57;2.30;;;;;;;;;;5013259;28;20561;-67
2022/09/03 05:18:18;;;;;;;4.50;2.17;;;;;;;;;;5014944;28;20206;-68
2022/09/03 05:20:44;;;;;;;4.77;2.37;;;;;;;;;;5014445;28;20176;-67
2022/09/03 05:23:10;;;;;;;4.63;2.40;;;;;;;;;;5013185;28;20563;-67
2022/09/03 05:25:36;;;;;;;5.27;2.30;;;;;;;;;;5014279;28;20683;-67
2022/09/03 05:28:04;;;;;;;7.07;2.47;;;;;;;;;;5013330;28;20583;-67
2022/09/03 05:30:30;;;;;;;6.73;2.43;;;;;;;;;;5012980;28;20323;-67
2022/09/03 05:32:56;;;;;;;7.43;2.47;;;;;;;;;;5013010;28;20660;-67
2022/09/03 05:35:22;;;;;;;4.30;2.37;;;;;;;;;;5014114;28;20267;-66
2022/09/03 05:37:48;;;;;;;3.43;2.20;;;;;;;;;;5014452;28;20227;-68
2022/09/03 05:40:14;;;;;;;2.70;2.50;;;;;;;;;;5013047;28;20186;-67
2022/09/03 05:42:39;;;;;;;4.47;2.50;;;;;;;;;;5014506;28;20176;-67
2022/09/03 05:45:09;;;;;;;3.80;2.37;;;;;;;;;;5014259;28;20275;-67
2022/09/03 05:47:35;;;;;;;4.20;2.50;;;;;;;;;;5014015;28;20198;-67
2022/09/03 05:50:01;;;;;;;3.73;2.53;;;;;;;;;;5013939;28;20203;-67
2022/09/03 05:52:27;;;;;;;8.40;2.60;;;;;;;;;;5014168;28;20182;-68
2022/09/03 05:54:53;;;;;;;3.23;2.30;;;;;;;;;;5013922;28;20175;-67
2022/09/03 05:57:19;;;;;;;4.57;2.47;;;;;;;;;;5012328;28;20591;-67
2022/09/03 05:59:45;;;;;;;7.70;2.37;;;;;;;;;;5012644;28;20620;-67
2022/09/03 06:02:11;;;;;;;4.47;2.50;;;;;;;;;;5012484;28;20194;-67
2022/09/03 06:04:37;;;;;;;5.33;2.40;;;;;;;;;;5012518;28;20187;-68
2022/09/03 06:07:03;;;;;;;4.90;2.40;;;;;;;;;;5013696;28;20576;-68
2022/09/03 06:09:29;;;;;;;4.60;2.13;;;;;;;;;;5013243;28;20218;-67
2022/09/03 06:11:55;;;;;;;6.13;2.40;;;;;;;;;;5013951;28;20175;-68
2022/09/03 06:14:22;;;;;;;5.73;2.57;;;;;;;;;;5012360;28;20207;-67
2022/09/03 06:16:51;;;;;;;5.90;2.30;;;;;;;;;;5013680;28;20208;-68
2022/09/03 06:19:17;;;;;;;8.47;2.33;;;;;;;;;;5012370;28;20237;-68
2022/09/03 06:21:44;;;;;;;6.83;2.53;;;;;;;;;;5013584;28;20180;-68
2022/09/03 06:24:11;;;;;;;5.70;2.40;;;;;;;;;;5014222;28;20180;-67
2022/09/03 06:26:37;;;;;;;5.87;2.30;;;;;;;;;;5012508;28;20580;-67
2022/09/03 06:29:03;;;;;;;4.47;2.30;;;;;;;;;;5012272;28;20186;-67
2022/09/03 06:31:29;;;;;;;7.37;2.73;;;;;;;;;;5013794;28;20175;-67
2022/09/03 06:33:55;;;;;;;6.17;2.70;;;;;;;;;;5013465;28;20176;-67
2022/09/03 06:36:22;;;;;;;3.40;2.37;;;;;;;;;;5013492;28;20249;-68
2022/09/03 06:38:51;;;;;;;5.40;2.43;;;;;;;;;;5012078;28;20598;-67
2022/09/03 06:41:23;;;;;;;5.33;2.10;;;;;;;;;;5013382;28;20183;-68
2022/09/03 06:43:50;;;;;;;5.23;2.80;;;;;;;;;;5012069;28;20176;-68
2022/09/03 06:46:17;;;;;;;3.83;2.23;;;;;;;;;;5013869;28;20287;-67
2022/09/03 06:48:43;;;;;;;5.00;2.60;;;;;;;;;;5013361;28;20179;-67
2022/09/03 06:51:13;;;;;;;3.27;2.43;;;;;;;;;;5013482;28;20633;-68
2022/09/03 06:53:40;;;;;;;3.80;2.30;;;;;;;;;;5013835;28;20660;-67
2022/09/03 06:56:07;;;;;;;5.27;2.37;;;;;;;;;;5013160;28;20261;-67
2022/09/03 06:58:36;;;;;;;7.73;2.60;;;;;;;;;;5011918;28;20167;-68
2022/09/03 07:01:06;;;;;;;8.80;2.60;;;;;;;;;;5011898;28;20184;-67
2022/09/03 07:03:33;;;;;;;8.37;2.60;;;;;;;;;;5013644;28;20211;-68
2022/09/03 07:06:20;;;;;;;8.57;2.50;;;;;;;;;;5011755;28;20203;-68
2022/09/03 07:08:46;;;;;;;5.40;2.57;;;;;;;;;;5013480;28;20171;-67
2022/09/03 07:11:18;;;;;;;8.10;2.60;;;;;;;;;;5013583;28;20558;-67
2022/09/03 07:13:46;;;;;;;8.63;2.60;;;;;;;;;;5013394;28;20201;-68
2022/09/03 07:16:13;;;;;;;12.40;2.83;;;;;;;;;;5013448;28;20565;-68
2022/09/03 07:18:40;;;;;;;2.93;2.13;;;;;;;;;;5012980;28;20176;-68
2022/09/03 07:21:07;;;;;;;3.67;2.20;;;;;;;;;;5040002;23;20607;-68
2022/09/03 07:23:33;;;;;;;2.03;1.80;;;;;;;;;;5018045;28;20176;-69
2022/09/03 07:26:00;;;;;;;3.03;2.17;;;;;;;;;;5018729;28;20266;-69
2022/09/03 07:28:26;;;;;;;7.27;2.43;;;;;;;;;;5016991;28;20187;-68
2022/09/03 07:30:53;;;;;;;10.37;2.23;;;;;;;;;;5018101;28;20215;-69
2022/09/03 07:33:19;;;;;;;4.73;2.37;;;;;;;;;;5015486;28;20303;-68
2022/09/03 07:35:46;;;;;;;4.30;2.50;;;;;;;;;;5015339;28;20211;-68
2022/09/03 07:38:16;;;;;;;5.93;2.07;;;;;;;;;;5015269;28;20292;-68
2022/09/03 07:40:42;;;;;;;5.70;2.60;;;;;;;;;;5015247;28;20223;-68
2022/09/03 07:43:09;;;;;;;4.77;2.20;;;;;;;;;;5016498;28;20266;-69
2022/09/03 07:45:36;;;;;;;3.70;2.23;;;;;;;;;;5016678;28;20180;-68
2022/09/03 07:48:02;;;;;;;2.90;2.00;;;;;;;;;;5016334;28;20225;-69
2022/09/03 07:50:31;;;;;;;4.47;2.30;;;;;;;;;;5016461;28;20212;-69
2022/09/03 07:52:58;;;;;;;2.80;2.30;;;;;;;;;;5016753;28;20254;-70
2022/09/03 07:55:24;;;;;;;3.80;2.30;;;;;;;;;;5015035;28;20195;-67
2022/09/03 07:57:50;;;;;;;3.43;2.20;;;;;;;;;;5016720;28;20172;-67
2022/09/03 08:00:16;;;;;;;6.40;2.30;;;;;;;;;;5016641;28;20222;-68
2022/09/03 08:02:42;;;;;;;4.10;2.30;;;;;;;;;;5014657;28;20238;-68
2022/09/03 08:05:08;;;;;;;4.73;2.20;;;;;;;;;;5016037;28;20184;-68
2022/09/03 08:07:34;;;;;;;6.47;2.00;;;;;;;;;;5015952;28;20175;-67
2022/09/03 08:10:00;;;;;;;3.17;2.10;;;;;;;;;;5015934;28;20734;-67
2022/09/03 08:12:26;;;;;;;5.00;2.63;;;;;;;;;;5015805;28;20172;-68
2022/09/03 08:14:53;;;;;;;5.40;1.83;;;;;;;;;;5016031;28;20549;-68
2022/09/03 08:17:18;;;;;;;2.40;2.07;;;;;;;;;;5015627;28;20258;-68
2022/09/03 08:19:45;;;;;;;3.77;2.10;;;;;;;;;;5015709;28;20239;-68
2022/09/03 08:22:11;;;;;;;1.70;1.60;;;;;;;;;;5015909;28;20218;-68
2022/09/03 08:24:38;;;;;;;3.67;1.63;;;;;;;;;;5015749;28;20266;-68
2022/09/03 08:27:04;;;;;;;4.40;1.97;;;;;;;;;;5016087;28;20230;-68
2022/09/03 08:29:30;;;;;;;2.13;1.93;;;;;;;;;;5014123;28;20694;-68
2022/09/03 08:31:56;;;;;;;4.10;1.60;;;;;;;;;;5015002;28;20257;-69
2022/09/03 08:34:22;;;;;;;4.03;1.97;;;;;;;;;;5015344;28;20172;-68
2022/09/03 08:36:49;;;;;;;3.63;1.70;;;;;;;;;;5015712;28;20172;-69
2022/09/03 08:39:15;;;;;;;2.20;2.00;;;;;;;;;;5015255;28;20548;-68
2022/09/03 08:41:50;;;;;;;6.13;1.60;;;;;;;;;;5015264;28;20196;-68
2022/09/03 08:44:16;;;;;;;2.93;2.50;;;;;;;;;;5015874;28;20172;-68
2022/09/03 08:46:50;;;;;;;2.63;2.13;;;;;;;;;;5015306;28;20175;-68
2022/09/03 08:49:18;;;;;;;4.73;2.20;;;;;;;;;;5015383;28;20230;-68
2022/09/03 08:51:46;;;;;;;1.93;1.70;;;;;;;;;;5015642;28;20543;-68
2022/09/03 08:54:12;;;;;;;4.93;1.80;;;;;;;;;;5015229;28;20168;-68
2022/09/03 08:56:40;;;;;;;4.40;1.83;;;;;;;;;;5015172;28;20172;-68
2022/09/03 08:59:07;;;;;;;5.40;1.97;;;;;;;;;;5013813;28;20234;-66
2022/09/03 09:01:53;;;;;;;4.10;1.90;;;;;;;;;;5014956;28;20200;-68
2022/09/03 09:04:27;;;;;;;2.40;1.70;;;;;;;;;;5015167;28;20168;-68
2022/09/03 09:07:07;;;;;;;3.80;2.00;;;;;;;;;;5013590;28;20171;-68
2022/09/03 09:09:47;;;;;;;4.30;2.03;;;;;;;;;;5013381;28;20206;-68
2022/09/03 09:12:32;;;;;;;5.57;1.80;;;;;;;;;;5013855;28;20176;-68
2022/09/03 09:15:17;;;;;;;6.60;2.60;;;;;;;;;;5013439;28;20226;-69
2022/09/03 09:17:43;;;;;;;2.73;1.87;;;;;;;;;;5014742;28;20182;-68
2022/09/03 09:20:21;;;;;;;2.10;1.77;;;;;;;;;;5014274;28;20294;-68
2022/09/03 09:23:02;;;;;;;6.17;1.63;;;;;;;;;;5013095;28;20218;-68
2022/09/03 09:25:30;;;;;;;4.07;1.70;;;;;;;;;;5014335;28;20195;-67
2022/09/03 09:27:59;;;;;;;4.23;1.83;;;;;;;;;;5013174;28;20180;-68
2022/09/03 09:30:25;;;;;;;3.07;2.40;;;;;;;;;;5013212;28;20220;-69
2022/09/03 09:32:51;;;;;;;4.53;2.13;;;;;;;;;;5014595;28;20637;-68
2022/09/03 09:35:18;;;;;;;4.17;1.90;;;;;;;;;;5014191;28;20194;-68
2022/09/03 09:37:52;;;;;;;2.33;1.60;;;;;;;;;;5014637;28;20222;-68
2022/09/03 09:40:25;;;;;;;6.70;1.63;;;;;;;;;;5013014;28;20226;-68
2022/09/03 09:42:57;;;;;;;3.47;1.90;;;;;;;;;;5012542;28;20259;-68
2022/09/03 09:45:23;;;;;;;2.47;1.93;;;;;;;;;;5014239;28;20168;-68
2022/09/03 09:47:53;;;;;;;1.87;1.70;;;;;;;;;;5012507;28;20187;-68
2022/09/03 09:50:21;;;;;;;4.23;1.90;;;;;;;;;;5013880;28;20215;-68
2022/09/03 09:52:46;;;;;;;4.53;2.10;;;;;;;;;;5012791;28;20180;-68
2022/09/03 09:55:18;;;;;;;3.73;2.10;;;;;;;;;;5013997;28;20179;-68
2022/09/03 09:57:44;;;;;;;2.20;2.00;;;;;;;;;;5013979;28;20172;-68
2022/09/03 10:00:14;;;;;;;4.80;2.00;;;;;;;;;;5013756;28;20743;-68
2022/09/03 10:02:46;;;;;;;6.13;2.23;;;;;;;;;;5013925;28;20199;-68
2022/09/03 10:05:20;;;;;;;2.50;1.73;;;;;;;;;;5012614;28;20179;-68
2022/09/03 10:08:15;;;;;;;2.13;1.73;;;;;;;;;;5014117;28;20172;-68
2022/09/03 10:10:44;;;;;;;4.87;2.07;;;;;;;;;;5004187;28;20674;-68
2022/09/03 10:13:13;;;;;;;4.43;2.30;;;;;;;;;;5013904;28;20261;-69
2022/09/03 10:15:47;;;;;;;3.73;1.90;;;;;;;;;;5012436;28;20179;-70
2022/09/03 10:18:16;;;;;;;3.67;1.90;;;;;;;;;;5012653;28;20171;-69
2022/09/03 10:20:54;;;;;;;3.77;2.30;;;;;;;;;;5012173;28;20285;-69
2022/09/03 10:23:22;;;;;;;5.03;2.43;;;;;;;;;;5014112;28;20168;-68
2022/09/03 10:25:59;;;;;;;4.00;2.40;;;;;;;;;;5012597;28;20186;-68
2022/09/03 10:28:26;;;;;;;3.60;1.80;;;;;;;;;;5014104;28;20541;-68
2022/09/03 10:30:58;;;;;;;6.83;2.00;;;;;;;;;;5013579;28;20218;-69
2022/09/03 10:33:33;;;;;;;2.40;2.10;;;;;;;;;;5012329;28;20261;-68
2022/09/03 10:36:21;;;;;;;2.50;2.30;;;;;;;;;;5013671;28;20242;-68
2022/09/03 10:39:00;;;;;;;6.27;2.17;;;;;;;;;;5012388;28;20652;-69
2022/09/03 10:41:27;;;;;;;2.90;2.20;;;;;;;;;;5013839;28;20347;-69
2022/09/03 10:44:13;;;;;;;6.63;2.60;;;;;;;;;;5014295;28;20180;-68
2022/09/03 10:46:45;;;;;;;6.23;2.80;;;;;;;;;;5012767;28;20175;-68
2022/09/03 10:49:29;;;;;;;5.50;2.10;;;;;;;;;;5013791;28;20183;-68
2022/09/03 10:52:13;;;;;;;4.30;2.17;;;;;;;;;;5012148;28;20553;-68
2022/09/03 10:54:42;;;;;;;12.43;2.53;;;;;;;;;;5014398;28;20164;-68
2022/09/03 10:57:19;;;;;;;3.20;2.10;;;;;;;;;;5016209;28;20191;-68
2022/09/03 10:59:50;;;;;;;3.10;2.67;;;;;;;;;;5017557;28;20233;-69
2022/09/03 11:02:34;;;;;;;3.07;2.10;;;;;;;;;;5017807;28;20179;-68
2022/09/03 11:05:11;;;;;;;2.03;1.90;;;;;;;;;;5015891;28;20209;-68
2022/09/03 11:07:43;;;;;;;6.17;4.57;;;;;;;;;;5017593;28;20189;-68
2022/09/03 11:10:23;;;;;;;3.70;2.23;;;;;;;;;;5017388;28;20691;-69
2022/09/03 11:13:06;;;;;;;3.90;2.70;;;;;;;;;;5017826;28;20160;-68
2022/09/03 11:15:41;;;;;;;2.63;2.03;;;;;;;;;;5016538;28;20172;-69
2022/09/03 11:18:13;;;;;;;3.57;2.40;;;;;;;;;;5017557;28;20172;-68
2022/09/03 11:20:41;;;;;;;3.90;2.60;;;;;;;;;;5017276;28;20218;-68
2022/09/03 11:23:09;;;;;;;5.03;2.77;;;;;;;;;;5017481;28;20203;-68
2022/09/03 11:25:36;;;;;;;4.87;2.37;;;;;;;;;;5016124;28;20184;-69
2022/09/03 11:28:02;;;;;;;5.63;3.03;;;;;;;;;;5017367;28;20216;-68
2022/09/03 11:30:48;;;;;;;12.00;3.33;;;;;;;;;;5017402;28;20258;-69
2022/09/03 11:33:16;;;;;;;2.50;2.30;;;;;;;;;;5015935;28;20186;-68
2022/09/03 11:35:42;;;;;;;3.57;2.37;;;;;;;;;;5018095;28;20175;-68
2022/09/03 11:38:15;;;;;;;3.63;3.00;;;;;;;;;;5017025;28;20667;-68
2022/09/03 11:40:56;;;;;;;5.23;2.57;;;;;;;;;;5015234;28;20238;-68
2022/09/03 11:43:27;;;;;;;3.07;2.63;;;;;;;;;;5017164;28;20160;-68
2022/09/03 11:46:02;;;;;;;5.27;2.70;;;;;;;;;;5016433;28;20188;-69
2022/09/03 11:48:42;;;;;;;4.20;2.87;;;;;;;;;;5015237;28;20191;-68
2022/09/03 11:51:17;;;;;;;4.93;2.53;;;;;;;;;;5016166;28;20221;-69
2022/09/03 11:53:52;;;;;;;4.07;2.63;;;;;;;;;;5016268;28;20553;-68
2022/09/03 11:56:19;;;;;;;7.37;3.30;;;;;;;;;;5014970;28;20250;-68
2022/09/03 11:58:45;;;;;;;4.33;2.70;;;;;;;;;;5016293;28;20172;-68
2022/09/03 12:01:17;;;;;;;13.03;3.23;;;;;;;;;;5014878;28;20266;-68
2022/09/03 12:04:02;;;;;;;2.80;2.60;;;;;;;;;;5016193;28;20164;-69
2022/09/03 12:06:36;;;;;;;6.80;3.17;;;;;;;;;;5015100;28;20184;-68
2022/09/03 12:09:08;;;;;;;5.77;2.37;;;;;;;;;;5014715;28;20211;-68
2022/09/03 12:11:54;;;;;;;6.13;2.93;;;;;;;;;;5014739;28;20687;-69
2022/09/03 12:14:39;;;;;;;5.23;3.53;;;;;;;;;;4995362;28;20623;-69
2022/09/03 12:17:18;;;;;;;7.03;4.10;;;;;;;;;;5015973;28;20211;-69
2022/09/03 12:19:44;;;;;;;9.10;2.93;;;;;;;;;;5015585;28;20290;-69
2022/09/03 12:22:15;;;;;;;4.03;2.90;;;;;;;;;;5014593;28;20664;-69
2022/09/03 12:24:41;;;;;;;3.40;2.43;;;;;;;;;;5015808;28;20559;-69
2022/09/03 12:27:09;;;;;;;3.93;2.60;;;;;;;;;;5014349;28;20678;-69
2022/09/03 12:29:34;;;;;;;4.53;2.50;;;;;;;;;;5015682;28;20211;-69
2022/09/03 12:32:12;;;;;;;3.70;2.50;;;;;;;;;;5015409;28;20179;-69
2022/09/03 12:34:39;;;;;;;4.30;2.40;;;;;;;;;;5015418;28;20283;-69
2022/09/03 12:37:16;;;;;;;10.93;3.90;;;;;;;;;;5015803;28;20226;-70
2022/09/03 12:39:49;;;;;;;3.03;2.60;;;;;;;;;;5015273;28;20203;-70
2022/09/03 12:42:20;;;;;;;5.33;2.50;;;;;;;;;;5015644;28;20171;-69
2022/09/03 12:44:46;;;;;;;3.03;2.27;;;;;;;;;;5015379;28;20168;-69
2022/09/03 12:47:13;;;;;;;2.80;2.20;;;;;;;;;;5015720;28;20551;-69
2022/09/03 12:49:40;;;;;;;2.30;2.20;;;;;;;;;;5015043;28;20214;-69
2022/09/03 12:52:18;;;;;;;2.37;2.17;;;;;;;;;;5015752;28;20222;-69
2022/09/03 12:54:53;;;;;;;4.37;2.40;;;;;;;;;;5013885;28;20222;-69
2022/09/03 12:57:21;;;;;;;2.83;2.40;;;;;;;;;;5015127;28;20647;-68
2022/09/03 12:59:48;;;;;;;4.53;2.53;;;;;;;;;;5013717;28;20667;-69
2022/09/03 13:02:18;;;;;;;3.43;2.20;;;;;;;;;;5015273;28;20186;-69
2022/09/03 13:04:45;;;;;;;2.50;2.30;;;;;;;;;;5015154;28;20183;-69
2022/09/03 13:07:14;;;;;;;4.93;2.30;;;;;;;;;;5015394;28;20183;-69
2022/09/03 13:09:40;;;;;;;3.07;2.33;;;;;;;;;;5014063;28;20208;-69
2022/09/03 13:12:07;;;;;;;3.03;2.23;;;;;;;;;;5016364;28;20238;-69
2022/09/03 13:14:46;;;;;;;3.07;2.20;;;;;;;;;;5014316;28;20192;-69
2022/09/03 13:17:31;;;;;;;3.97;2.43;;;;;;;;;;5015051;28;20207;-69
2022/09/03 13:20:15;;;;;;;5.40;2.63;;;;;;;;;;5014731;28;20293;-69
2022/09/03 13:23:00;;;;;;;2.83;2.53;;;;;;;;;;5014875;28;20271;-69
2022/09/03 13:25:35;;;;;;;2.50;2.30;;;;;;;;;;5014771;28;20179;-69
2022/09/03 13:28:21;;;;;;;4.47;2.47;;;;;;;;;;5014717;28;20187;-69
2022/09/03 13:30:54;;;;;;;6.07;2.40;;;;;;;;;;5014330;28;20249;-69
2022/09/03 13:33:40;;;;;;;6.80;4.07;;;;;;;;;;5014604;28;20168;-69
2022/09/03 13:36:17;;;;;;;4.73;3.83;;;;;;;;;;5014402;28;20182;-69
2022/09/03 13:38:49;;;;;;;4.70;3.10;;;;;;;;;;5014607;28;20175;-69
2022/09/03 13:41:24;;;;;;;7.13;4.40;;;;;;;;;;5014359;28;20286;-69
2022/09/03 13:44:08;;;;;;;15.47;4.20;;;;;;;;;;5012989;28;20230;-69
2022/09/03 13:46:50;;;;;;;7.87;4.57;;;;;;;;;;5014741;28;20180;-69
2022/09/03 13:52:41;;;;;;;13.17;6.10;;;;;;;;;;5014689;28;20683;-69
2022/09/03 13:55:14;;;;;;;9.00;4.93;;;;;;;;;;5013006;28;20274;-69
2022/09/03 13:57:50;;;;;;;13.10;5.50;;;;;;;;;;5014246;28;20175;-69
2022/09/03 14:00:25;;;;;;;4.17;3.13;;;;;;;;;;5015210;28;20598;-69
2022/09/03 14:02:53;;;;;;;3.00;2.70;;;;;;;;;;5014137;28;20655;-70
2022/09/03 14:05:25;;;;;;;2.73;2.50;;;;;;;;;;5014450;28;20184;-69
2022/09/03 14:08:12;;;;;;;6.30;3.50;;;;;;;;;;5015543;28;20258;-70
2022/09/03 14:10:51;;;;;;;9.97;6.20;;;;;;;;;;5014371;28;20295;-71
2022/09/03 14:13:17;;;;;;;;;;;;;;;;;;5014312;28;20033;-70
2022/09/03 14:15:42;;;;;;;;;;;;;;;;;;5014549;28;20397;-70
2022/09/03 14:18:08;;;;;;;;;;;;;;;;;;5014806;28;19933;-70
2022/09/03 14:20:34;;;;;;;;;;;;;;;;;;5014326;28;19913;-70
2022/09/03 14:23:00;;;;;;;;;;;;;;;;;;5014525;28;19909;-70
2022/09/03 14:25:26;;;;;;;;;;;;;;;;;;5014469;28;19912;-70
2022/09/03 14:27:52;;;;;;;;;;;;;;;;;;5014401;28;19920;-70
2022/09/03 14:30:18;;;;;;;;;;;;;;;;;;5014162;28;20373;-70
2022/09/03 14:32:43;;;;;;;;;;;;;;;;;;5015053;28;19906;-70
2022/09/03 14:35:10;;;;;;;;;;;;;;;;;;5014401;28;19912;-70
2022/09/03 14:37:35;;;;;;;;;;;;;;;;;;5014984;28;19909;-70
2022/09/03 14:40:01;;;;;;;6.87;4.73;;;;;;;;;;5012952;28;20088;-70
2022/09/03 14:42:36;;;;;;;8.02;5.38;;;;;;;;;;5014278;28;20207;-69
2022/09/03 14:45:22;;;;;;;11.43;10.02;;;;;;;;;;5016191;28;20182;-70
2022/09/03 14:48:07;;;;;;;10.55;9.45;;;;;;;;;;5018589;28;20175;-70
2022/09/03 14:50:37;;;;;;;9.20;8.32;;;;;;;;;;5013914;28;20644;-69
2022/09/03 14:53:12;;;;;;;8.38;5.90;;;;;;;;;;5012874;28;20159;-70
2022/09/03 14:55:50;;;;;;;9.95;6.57;;;;;;;;;;5014078;28;20195;-70
2022/09/03 14:58:34;;;;;;;13.93;5.30;;;;;;;;;;5015324;28;20254;-70
2022/09/03 15:01:03;;;;;;;4.20;2.92;;;;;;;;;;5012577;28;20203;-70
2022/09/03 15:03:42;;;;;;;5.35;3.50;;;;;;;;;;5013867;28;20172;-70
2022/09/03 15:06:20;;;;;;;38.38;16.55;;;;;;;;;;5014152;28;20180;-71
2022/09/03 15:08:53;;;;;;;41.15;18.35;;;;;;;;;;5013650;28;20180;-70
2022/09/03 15:11:21;;;;;;;40.65;17.80;;;;;;;;;;5012397;28;20568;-70